createdAt,value
2023-02-06T00:01:08.449Z,102260.75
2023-02-06T00:03:10.348Z,102257.44
2023-02-06T00:05:11.834Z,102261.38
2023-02-06T00:07:13.221Z,102265.56
2023-02-06T00:09:14.709Z,102263.41
2023-02-06T00:11:16.953Z,102253.75
2023-02-06T00:13:18.414Z,102253.69
2023-02-06T00:15:19.973Z,102250.13
2023-02-06T00:17:21.368Z,102246.78
2023-02-06T00:19:22.787Z,102251.06
2023-02-06T00:21:26.011Z,102261.00
2023-02-06T00:23:27.393Z,102253.38
2023-02-06T00:25:28.761Z,102252.22
2023-02-06T00:27:30.118Z,102246.81
2023-02-06T00:29:31.545Z,102257.53
2023-02-06T00:31:32.994Z,102251.69
2023-02-06T00:33:34.888Z,102253.59
2023-02-06T00:35:36.617Z,102250.34
2023-02-06T00:37:38.083Z,102246.06
2023-02-06T00:39:39.480Z,102242.91
2023-02-06T00:41:40.827Z,102247.94
2023-02-06T00:43:43.358Z,102244.69
2023-02-06T00:45:44.820Z,102244.06
2023-02-06T00:47:46.203Z,102248.25
2023-02-06T00:49:47.607Z,102250.97
2023-02-06T00:51:49.056Z,102252.84
2023-02-06T00:53:51.293Z,102256.47
2023-02-06T00:55:52.729Z,102250.00
2023-02-06T00:57:54.139Z,102239.69
2023-02-06T00:59:55.517Z,102238.09
2023-02-06T01:01:56.968Z,102233.31
2023-02-06T01:03:58.543Z,102224.84
2023-02-06T01:06:00.002Z,102234.84
2023-02-06T01:08:04.031Z,102230.56
2023-02-06T01:10:07.886Z,102237.56
2023-02-06T01:12:09.276Z,102238.25
2023-02-06T01:14:10.723Z,102235.66
2023-02-06T01:16:14.705Z,102240.66
2023-02-06T01:18:16.107Z,102244.22
2023-02-06T01:20:17.576Z,102242.13
2023-02-06T01:22:19.037Z,102245.56
2023-02-06T01:24:20.379Z,102263.06
2023-02-06T01:26:24.546Z,102255.00
2023-02-06T01:28:27.064Z,102252.13
2023-02-06T01:30:28.463Z,102242.50
2023-02-06T01:32:29.809Z,102255.84
2023-02-06T01:34:31.210Z,102257.06
2023-02-06T01:36:32.590Z,102256.34
2023-02-06T01:38:33.984Z,102252.47
2023-02-06T01:40:35.404Z,102254.50
2023-02-06T01:42:37.856Z,102245.56
2023-02-06T01:44:39.662Z,102251.81
2023-02-06T01:46:43.832Z,102247.53
2023-02-06T01:48:54.133Z,102245.03
2023-02-06T01:50:58.722Z,102246.91
2023-02-06T01:53:01.735Z,102248.94
2023-02-06T01:55:05.056Z,102246.34
2023-02-06T01:57:10.563Z,102244.59
2023-02-06T01:59:12.530Z,102244.78
2023-02-06T02:01:15.365Z,102244.06
2023-02-06T02:03:16.904Z,102234.56
2023-02-06T02:05:19.580Z,102238.84
2023-02-06T02:07:25.118Z,102238.94
2023-02-06T02:09:27.024Z,102235.81
2023-02-06T02:11:32.975Z,102233.28
2023-02-06T02:13:36.504Z,102228.16
2023-02-06T02:16:13.527Z,102222.66
2023-02-06T02:18:26.237Z,102228.16
2023-02-06T02:21:11.154Z,102228.63
2023-02-06T02:23:27.843Z,102231.25
2023-02-06T02:26:09.009Z,102232.66
2023-02-06T02:28:42.704Z,102235.09
2023-02-06T02:30:54.335Z,102229.44
2023-02-06T02:33:17.474Z,102237.53
2023-02-06T02:35:31.937Z,102231.59
2023-02-06T02:37:55.308Z,102237.16
2023-02-06T02:40:08.608Z,102230.78
2023-02-06T02:42:13.111Z,102227.97
2023-02-06T02:44:29.685Z,102232.63
2023-02-06T02:46:37.187Z,102237.09
2023-02-06T02:48:42.883Z,102234.38
2023-02-06T02:50:44.785Z,102232.81
2023-02-06T02:52:46.426Z,102230.22
2023-02-06T02:54:47.813Z,102222.69
2023-02-06T02:56:49.268Z,102234.56
2023-02-06T02:59:04.719Z,102236.97
2023-02-06T03:01:11.417Z,102242.28
2023-02-06T03:03:15.629Z,102239.31
2023-02-06T03:05:21.941Z,102241.44
2023-02-06T03:07:35.017Z,102244.69
2023-02-06T03:09:54.628Z,102249.53
2023-02-06T03:12:12.755Z,102248.53
2023-02-06T03:14:34.422Z,102241.81
2023-02-06T03:16:45.764Z,102233.91
2023-02-06T03:19:01.792Z,102239.50
2023-02-06T03:21:06.447Z,102238.47
2023-02-06T03:23:12.131Z,102238.38
2023-02-06T03:25:20.147Z,102242.81
2023-02-06T03:27:22.904Z,102250.44
2023-02-06T03:29:25.864Z,102248.00
2023-02-06T03:31:39.871Z,102243.97
2023-02-06T03:33:52.890Z,102237.72
2023-02-06T03:35:56.846Z,102248.31
2023-02-06T03:37:58.347Z,102239.69
2023-02-06T03:40:01.693Z,102238.00
2023-02-06T03:42:05.079Z,102251.19
2023-02-06T03:44:10.310Z,102248.59
2023-02-06T03:46:14.483Z,102246.56
2023-02-06T03:48:23.670Z,102249.88
2023-02-06T03:50:26.813Z,102248.00
2023-02-06T03:52:35.942Z,102250.44
2023-02-06T03:54:42.807Z,102242.53
2023-02-06T03:56:48.515Z,102242.66
2023-02-06T03:58:49.977Z,102242.53
2023-02-06T04:00:52.437Z,102258.06
2023-02-06T04:02:56.647Z,102256.09
2023-02-06T04:04:58.034Z,102251.81
2023-02-06T04:07:12.716Z,102248.19
2023-02-06T04:09:14.128Z,102248.19
2023-02-06T04:11:15.668Z,102252.38
2023-02-06T04:13:17.056Z,102246.06
2023-02-06T04:15:18.608Z,102254.59
2023-02-06T04:17:38.545Z,102257.00
2023-02-06T04:19:42.135Z,102255.78
2023-02-06T04:21:43.710Z,102256.53
2023-02-06T04:23:45.164Z,102257.16
2023-02-06T04:25:47.232Z,102257.81
2023-02-06T04:27:49.768Z,102246.53
2023-02-06T04:29:51.248Z,102253.16
2023-02-06T04:31:52.631Z,102254.72
2023-02-06T04:33:54.008Z,102259.72
2023-02-06T04:35:55.415Z,102257.75
2023-02-06T04:37:56.817Z,102266.41
2023-02-06T04:39:58.193Z,102273.19
2023-02-06T04:41:59.802Z,102276.34
2023-02-06T04:44:01.266Z,102276.34
2023-02-06T04:46:02.749Z,102272.59
2023-02-06T04:48:04.254Z,102272.41
2023-02-06T04:50:06.166Z,102273.13
2023-02-06T04:52:07.546Z,102273.75
2023-02-06T04:54:12.615Z,102266.78
2023-02-06T04:56:13.981Z,102264.81
2023-02-06T04:58:15.379Z,102263.69
2023-02-06T05:00:17.130Z,102248.69
2023-02-06T05:02:18.566Z,102243.28
2023-02-06T05:04:20.042Z,102239.94
2023-02-06T05:06:21.437Z,102240.56
2023-02-06T05:08:22.820Z,102232.84
2023-02-06T05:10:24.283Z,102243.81
2023-02-06T05:12:25.739Z,102240.16
2023-02-06T05:14:27.187Z,102246.00
2023-02-06T05:16:28.725Z,102240.78
2023-02-06T05:18:30.107Z,102245.84
2023-02-06T05:20:31.602Z,102234.34
2023-02-06T05:22:32.992Z,102234.34
2023-02-06T05:24:34.404Z,102234.97
2023-02-06T05:26:35.760Z,102237.69
2023-02-06T05:28:37.118Z,102228.94
2023-02-06T05:30:38.658Z,102227.03
2023-02-06T05:32:40.696Z,102232.03
2023-02-06T05:34:42.039Z,102238.53
2023-02-06T05:36:43.425Z,102235.69
2023-02-06T05:38:44.904Z,102233.84
2023-02-06T05:40:49.912Z,102233.50
2023-02-06T05:42:51.381Z,102234.47
2023-02-06T05:44:52.811Z,102228.50
2023-02-06T05:46:54.401Z,102226.66
2023-02-06T05:48:55.771Z,102231.75
2023-02-06T05:50:58.187Z,102233.44
2023-02-06T05:52:59.555Z,102227.28
2023-02-06T05:55:00.952Z,102221.94
2023-02-06T05:57:02.709Z,102222.69
2023-02-06T05:59:04.156Z,102221.84
2023-02-06T06:01:05.572Z,102211.84
2023-02-06T06:03:06.933Z,102219.13
2023-02-06T06:05:08.582Z,102218.81
2023-02-06T06:07:09.991Z,102221.13
2023-02-06T06:09:11.809Z,102228.75
2023-02-06T06:11:13.316Z,102225.94
2023-02-06T06:13:14.695Z,102226.78
2023-02-06T06:15:16.399Z,102226.66
2023-02-06T06:17:17.804Z,102223.03
2023-02-06T06:19:19.435Z,102234.25
2023-02-06T06:21:20.815Z,102233.31
2023-02-06T06:23:22.308Z,102232.81
2023-02-06T06:25:23.790Z,102226.66
2023-02-06T06:27:25.284Z,102231.97
2023-02-06T06:29:26.940Z,102227.47
2023-02-06T06:31:28.424Z,102224.25
2023-02-06T06:33:29.842Z,102224.56
2023-02-06T06:35:31.438Z,102233.34
2023-02-06T06:37:32.809Z,102233.84
2023-02-06T06:39:34.260Z,102223.28
2023-02-06T06:41:35.693Z,102232.88
2023-02-06T06:43:37.380Z,102229.06
2023-02-06T06:45:39.244Z,102224.47
2023-02-06T06:47:40.901Z,102226.03
2023-02-06T06:49:42.279Z,102226.84
2023-02-06T06:51:43.707Z,102224.56
2023-02-06T06:53:45.106Z,102218.72
2023-02-06T06:55:46.473Z,102220.94
2023-02-06T06:57:47.881Z,102230.31
2023-02-06T06:59:49.968Z,102235.31
2023-02-06T07:01:52.452Z,102228.53
2023-02-06T07:03:53.853Z,102226.84
2023-02-06T07:05:55.305Z,102228.31
2023-02-06T07:07:56.852Z,102215.28
2023-02-06T07:09:59.634Z,102224.78
2023-02-06T07:12:01.173Z,102224.56
2023-02-06T07:14:03.614Z,102227.91
2023-02-06T07:16:05.399Z,102228.09
2023-02-06T07:18:07.060Z,102218.00
2023-02-06T07:20:09.177Z,102219.25
2023-02-06T07:22:10.558Z,102223.31
2023-02-06T07:24:11.983Z,102226.03
2023-02-06T07:26:13.447Z,102236.25
2023-02-06T07:28:14.834Z,102226.78
2023-02-06T07:30:16.406Z,102230.09
2023-02-06T07:32:17.767Z,102227.91
2023-02-06T07:34:19.142Z,102223.44
2023-02-06T07:36:20.534Z,102217.47
2023-02-06T07:38:22.192Z,102219.69
2023-02-06T07:40:25.113Z,102221.22
2023-02-06T07:42:26.576Z,102219.97
2023-02-06T07:44:28.026Z,102215.91
2023-02-06T07:46:29.412Z,102218.91
2023-02-06T07:48:30.913Z,102213.47
2023-02-06T07:50:32.593Z,102207.44
2023-02-06T07:52:34.046Z,102209.72
2023-02-06T07:54:35.496Z,102210.25
2023-02-06T07:56:37.166Z,102212.31
2023-02-06T07:58:38.562Z,102215.41
2023-02-06T08:00:40.850Z,102216.16
2023-02-06T08:02:42.440Z,102213.94
2023-02-06T08:04:44.025Z,102219.06
2023-02-06T08:06:45.647Z,102226.69
2023-02-06T08:08:47.647Z,102233.56
2023-02-06T08:10:49.491Z,102227.53
2023-02-06T08:12:51.157Z,102226.25
2023-02-06T08:14:52.579Z,102224.25
2023-02-06T08:16:54.374Z,102221.13
2023-02-06T08:18:55.795Z,102221.75
2023-02-06T08:21:02.341Z,102217.63
2023-02-06T08:23:04.153Z,102230.16
2023-02-06T08:25:06.317Z,102231.09
2023-02-06T08:27:07.790Z,102227.53
2023-02-06T08:29:09.965Z,102228.06
2023-02-06T08:31:14.230Z,102228.06
2023-02-06T08:33:15.670Z,102228.59
2023-02-06T08:35:17.296Z,102232.06
2023-02-06T08:37:18.800Z,102237.38
2023-02-06T08:39:20.254Z,102229.94
2023-02-06T08:41:29.760Z,102232.94
2023-02-06T08:43:33.031Z,102226.53
2023-02-06T08:45:34.964Z,102227.81
2023-02-06T08:47:36.430Z,102228.91
2023-02-06T08:49:38.214Z,102228.66
2023-02-06T08:51:40.300Z,102234.38
2023-02-06T08:53:41.658Z,102229.50
2023-02-06T08:55:43.150Z,102231.06
2023-02-06T08:57:44.531Z,102230.13
2023-02-06T08:59:45.945Z,102225.69
2023-02-06T09:01:49.209Z,102233.34
2023-02-06T09:03:55.158Z,102242.00
2023-02-06T09:06:09.510Z,102234.38
2023-02-06T09:08:11.612Z,102234.72
2023-02-06T09:10:30.343Z,102234.91
2023-02-06T09:12:31.734Z,102238.56
2023-02-06T09:14:35.312Z,102234.75
2023-02-06T09:16:37.866Z,102234.00
2023-02-06T09:18:39.628Z,102241.00
2023-02-06T09:20:41.006Z,102238.38
2023-02-06T09:22:44.470Z,102236.50
2023-02-06T09:24:45.954Z,102233.81
2023-02-06T09:26:59.378Z,102243.94
2023-02-06T09:29:05.482Z,102246.84
2023-02-06T09:31:08.480Z,102245.56
2023-02-06T09:33:09.920Z,102242.94
2023-02-06T09:35:11.292Z,102242.72
2023-02-06T09:37:12.672Z,102236.44
2023-02-06T09:39:14.114Z,102243.16
2023-02-06T09:41:23.987Z,102243.94
2023-02-06T09:43:25.814Z,102232.88
2023-02-06T09:45:29.505Z,102228.41
2023-02-06T09:47:35.139Z,102229.63
2023-02-06T09:49:52.728Z,102230.22
2023-02-06T09:51:57.069Z,102231.19
2023-02-06T09:54:09.009Z,102225.50
2023-02-06T09:56:42.865Z,102231.44
2023-02-06T09:59:07.876Z,102229.88
2023-02-06T10:01:25.434Z,102242.38
2023-02-06T10:03:53.796Z,102240.53
2023-02-06T10:06:14.630Z,102235.41
2023-02-06T10:08:25.357Z,102234.47
2023-02-06T10:10:36.334Z,102232.47
2023-02-06T10:12:44.691Z,102226.50
2023-02-06T10:14:52.790Z,102231.75
2023-02-06T10:16:59.988Z,102230.31
2023-02-06T10:19:05.385Z,102228.66
2023-02-06T10:21:26.707Z,102226.28
2023-02-06T10:23:47.672Z,102229.88
2023-02-06T10:26:04.267Z,102228.84
2023-02-06T10:28:25.991Z,102213.72
2023-02-06T10:30:58.374Z,102208.38
2023-02-06T10:32:59.654Z,102211.84
2023-02-06T10:35:18.984Z,102206.63
2023-02-06T10:37:35.669Z,102201.50
2023-02-06T10:40:26.042Z,102192.28
2023-02-06T10:42:45.486Z,102187.63
2023-02-06T10:45:13.186Z,102187.13
2023-02-06T10:47:30.408Z,102184.03
2023-02-06T10:49:35.649Z,102171.91
2023-02-06T10:51:43.143Z,102176.91
2023-02-06T10:53:57.779Z,102169.97
2023-02-06T10:56:06.969Z,102168.88
2023-02-06T10:58:18.760Z,102171.53
2023-02-06T11:00:24.864Z,102165.72
2023-02-06T11:02:44.297Z,102160.63
2023-02-06T11:05:07.948Z,102156.28
2023-02-06T11:07:17.797Z,102161.66
2023-02-06T11:09:19.205Z,102161.66
2023-02-06T11:11:22.747Z,102154.44
2023-02-06T11:13:34.934Z,102154.44
2023-02-06T11:15:54.585Z,102154.88
2023-02-06T11:17:56.507Z,102157.38
2023-02-06T11:20:21.664Z,102143.47
2023-02-06T11:22:33.338Z,102149.31
2023-02-06T11:24:39.634Z,102142.09
2023-02-06T11:26:50.019Z,102145.41
2023-02-06T11:28:59.524Z,102149.44
2023-02-06T11:31:09.787Z,102154.69
2023-02-06T11:33:26.413Z,102141.88
2023-02-06T11:35:33.284Z,102144.06
2023-02-06T11:37:38.347Z,102137.84
2023-02-06T11:39:39.936Z,102143.25
2023-02-06T11:41:47.282Z,102136.03
2023-02-06T11:43:50.887Z,102135.47
2023-02-06T11:46:08.231Z,102143.31
2023-02-06T11:48:39.215Z,102145.59
2023-02-06T11:50:41.218Z,102141.28
2023-02-06T11:52:46.880Z,102147.25
2023-02-06T11:54:54.142Z,102145.34
2023-02-06T11:57:03.449Z,102140.13
2023-02-06T11:59:26.979Z,102153.03
2023-02-06T12:01:28.564Z,102152.84
2023-02-06T12:03:32.647Z,102140.69
2023-02-06T12:05:40.550Z,102150.38
2023-02-06T12:07:46.010Z,102137.94
2023-02-06T12:09:47.566Z,102142.47
2023-02-06T12:11:56.107Z,102141.19
2023-02-06T12:14:20.321Z,102146.09
2023-02-06T12:16:23.305Z,102149.63
2023-02-06T12:18:34.809Z,102148.19
2023-02-06T12:20:46.879Z,102143.06
2023-02-06T12:22:54.108Z,102139.22
2023-02-06T12:24:56.879Z,102133.88
2023-02-06T12:27:02.460Z,102140.00
2023-02-06T12:29:41.878Z,102138.22
2023-02-06T12:32:04.479Z,102130.56
2023-02-06T12:34:50.456Z,102135.50
2023-02-06T12:37:10.705Z,102129.25
2023-02-06T12:39:20.023Z,102126.69
2023-02-06T12:41:40.786Z,102124.28
2023-02-06T12:43:45.310Z,102127.22
2023-02-06T12:45:59.684Z,102126.41
2023-02-06T12:48:23.007Z,102116.91
2023-02-06T12:50:35.873Z,102121.31
2023-02-06T12:52:44.292Z,102118.31
2023-02-06T12:54:53.396Z,102117.25
2023-02-06T12:57:00.576Z,102120.34
2023-02-06T12:59:30.655Z,102118.56
2023-02-06T13:01:51.956Z,102118.97
2023-02-06T13:03:59.906Z,102122.16
2023-02-06T13:06:24.244Z,102126.13
2023-02-06T13:08:30.838Z,102121.88
2023-02-06T13:10:32.391Z,102119.25
2023-02-06T13:12:34.546Z,102112.44
2023-02-06T13:14:37.538Z,102104.84
2023-02-06T13:16:43.024Z,102105.94
2023-02-06T13:18:45.454Z,102090.72
2023-02-06T13:21:19.695Z,102103.25
2023-02-06T13:23:24.070Z,102096.03
2023-02-06T13:25:25.424Z,102094.34
2023-02-06T13:27:39.777Z,102099.16
2023-02-06T13:29:53.713Z,102095.00
2023-02-06T13:32:10.448Z,102093.25
2023-02-06T13:34:16.929Z,102098.03
2023-02-06T13:36:41.290Z,102097.50
2023-02-06T13:38:43.558Z,102086.59
2023-02-06T13:40:44.942Z,102083.94
2023-02-06T13:43:15.452Z,102078.94
2023-02-06T13:45:29.116Z,102083.50
2023-02-06T13:47:52.876Z,102083.88
2023-02-06T13:50:29.173Z,102083.59
2023-02-06T13:52:44.151Z,102089.78
2023-02-06T13:55:19.380Z,102091.53
2023-02-06T13:57:39.060Z,102094.63
2023-02-06T13:59:46.562Z,102099.69
2023-02-06T14:01:47.954Z,102098.56
2023-02-06T14:03:51.168Z,102103.56
2023-02-06T14:06:20.402Z,102090.03
2023-02-06T14:08:30.468Z,102095.13
2023-02-06T14:10:31.820Z,102099.53
2023-02-06T14:12:48.420Z,102101.28
2023-02-06T14:15:17.744Z,102093.63
2023-02-06T14:17:37.273Z,102087.22
2023-02-06T14:19:59.796Z,102089.78
2023-02-06T14:22:13.788Z,102086.00
2023-02-06T14:24:53.899Z,102084.72
2023-02-06T14:27:16.139Z,102088.22
2023-02-06T14:29:31.484Z,102086.28
2023-02-06T14:32:04.525Z,102081.66
2023-02-06T14:34:38.593Z,102084.84
2023-02-06T14:36:55.159Z,102090.47
2023-02-06T14:39:34.087Z,102085.84
2023-02-06T14:41:39.422Z,102089.44
2023-02-06T14:43:44.094Z,102080.09
2023-02-06T14:46:05.626Z,102081.97
2023-02-06T14:48:22.342Z,102093.81
2023-02-06T14:50:33.090Z,102087.66
2023-02-06T14:52:34.965Z,102086.06
2023-02-06T14:54:41.560Z,102082.22
2023-02-06T14:56:42.999Z,102088.09
2023-02-06T14:58:46.363Z,102093.50
2023-02-06T15:00:47.908Z,102100.31
2023-02-06T15:03:16.057Z,102102.47
2023-02-06T15:05:24.582Z,102098.91
2023-02-06T15:07:37.193Z,102097.28
2023-02-06T15:09:43.801Z,102092.16
2023-02-06T15:11:52.309Z,102088.59
2023-02-06T15:13:56.433Z,102085.97
2023-02-06T15:15:57.852Z,102086.59
2023-02-06T15:18:16.294Z,102082.09
2023-02-06T15:20:20.746Z,102080.25
2023-02-06T15:22:27.605Z,102076.72
2023-02-06T15:24:38.069Z,102080.09
2023-02-06T15:27:01.267Z,102079.16
2023-02-06T15:29:05.115Z,102081.91
2023-02-06T15:31:16.396Z,102070.59
2023-02-06T15:33:23.479Z,102075.06
2023-02-06T15:35:26.817Z,102076.59
2023-02-06T15:37:35.992Z,102075.63
2023-02-06T15:39:40.173Z,102069.81
2023-02-06T15:41:45.554Z,102071.34
2023-02-06T15:43:48.012Z,102066.16
2023-02-06T15:45:51.151Z,102063.16
2023-02-06T15:47:54.160Z,102060.66
2023-02-06T15:49:56.958Z,102065.47
2023-02-06T15:51:58.480Z,102064.00
2023-02-06T15:54:22.558Z,102051.59
2023-02-06T15:56:34.034Z,102059.50
2023-02-06T15:58:36.837Z,102064.69
2023-02-06T16:00:38.526Z,102056.84
2023-02-06T16:02:40.965Z,102066.28
2023-02-06T16:04:42.410Z,102067.50
2023-02-06T16:06:45.518Z,102065.00
2023-02-06T16:08:57.320Z,102063.84
2023-02-06T16:11:04.399Z,102064.94
2023-02-06T16:13:16.044Z,102062.34
2023-02-06T16:15:36.860Z,102062.47
2023-02-06T16:17:41.175Z,102063.19
2023-02-06T16:19:53.793Z,102063.91
2023-02-06T16:22:06.635Z,102060.34
2023-02-06T16:24:17.609Z,102062.38
2023-02-06T16:26:24.980Z,102065.09
2023-02-06T16:28:27.903Z,102069.75
2023-02-06T16:30:32.824Z,102071.75
2023-02-06T16:32:35.372Z,102064.31
2023-02-06T16:34:41.049Z,102067.25
2023-02-06T16:36:42.569Z,102068.78
2023-02-06T16:38:53.991Z,102065.00
2023-02-06T16:41:03.307Z,102064.31
2023-02-06T16:43:11.594Z,102065.59
2023-02-06T16:45:23.399Z,102064.06
2023-02-06T16:47:24.911Z,102061.09
2023-02-06T16:49:26.305Z,102059.41
2023-02-06T16:51:29.885Z,102054.66
2023-02-06T16:53:31.727Z,102058.34
2023-02-06T16:55:33.398Z,102058.47
2023-02-06T16:57:41.758Z,102061.78
2023-02-06T16:59:43.194Z,102060.50
2023-02-06T17:01:44.642Z,102057.72
2023-02-06T17:03:46.025Z,102059.66
2023-02-06T17:05:50.031Z,102058.91
2023-02-06T17:07:52.071Z,102063.44
2023-02-06T17:09:56.691Z,102060.22
2023-02-06T17:11:58.236Z,102057.47
2023-02-06T17:13:59.820Z,102063.53
2023-02-06T17:16:01.340Z,102064.38
2023-02-06T17:18:02.732Z,102066.16
2023-02-06T17:20:04.888Z,102063.78
2023-02-06T17:22:08.205Z,102064.25
2023-02-06T17:24:09.662Z,102062.81
2023-02-06T17:26:18.182Z,102063.41
2023-02-06T17:28:20.421Z,102063.88
2023-02-06T17:30:24.130Z,102066.34
2023-02-06T17:32:25.584Z,102075.03
2023-02-06T17:34:29.419Z,102067.75
2023-02-06T17:36:32.562Z,102078.09
2023-02-06T17:38:33.997Z,102074.38
2023-02-06T17:40:36.769Z,102075.91
2023-02-06T17:42:38.498Z,102074.44
2023-02-06T17:44:42.352Z,102071.78
2023-02-06T17:46:44.903Z,102072.13
2023-02-06T17:48:46.391Z,102059.63
2023-02-06T17:50:47.838Z,102065.59
2023-02-06T17:52:50.215Z,102065.69
2023-02-06T17:54:51.740Z,102061.53
2023-02-06T17:56:53.131Z,102069.78
2023-02-06T17:58:54.493Z,102056.03
2023-02-06T18:00:55.852Z,102051.97
2023-02-06T18:02:59.218Z,102061.31
2023-02-06T18:05:00.658Z,102055.47
2023-02-06T18:07:02.049Z,102048.81
2023-02-06T18:09:04.392Z,102061.03
2023-02-06T18:11:21.370Z,102047.22
2023-02-06T18:13:25.035Z,102063.84
2023-02-06T18:15:26.450Z,102056.56
2023-02-06T18:17:27.965Z,102065.34
2023-02-06T18:19:30.217Z,102058.44
2023-02-06T18:21:31.651Z,102068.16
2023-02-06T18:23:33.301Z,102067.75
2023-02-06T18:25:39.071Z,102066.19
2023-02-06T18:27:41.687Z,102064.84
2023-02-06T18:29:49.674Z,102066.72
2023-02-06T18:31:51.927Z,102069.56
2023-02-06T18:33:54.730Z,102075.00
2023-02-06T18:35:56.663Z,102079.59
2023-02-06T18:37:58.436Z,102086.78
2023-02-06T18:39:59.932Z,102073.84
2023-02-06T18:42:20.166Z,102071.22
2023-02-06T18:44:21.571Z,102078.03
2023-02-06T18:46:22.970Z,102073.88
2023-02-06T18:48:24.655Z,102075.03
2023-02-06T18:50:26.332Z,102070.94
2023-02-06T18:52:28.819Z,102075.53
2023-02-06T18:54:30.487Z,102075.84
2023-02-06T18:56:32.451Z,102083.03
2023-02-06T18:58:33.875Z,102080.78
2023-02-06T19:00:37.734Z,102079.09
2023-02-06T19:02:39.862Z,102067.84
2023-02-06T19:04:41.363Z,102066.28
2023-02-06T19:06:45.056Z,102066.28
2023-02-06T19:08:46.889Z,102063.97
2023-02-06T19:10:48.290Z,102064.91
2023-02-06T19:12:49.779Z,102061.81
2023-02-06T19:14:51.176Z,102060.41
2023-02-06T19:16:53.115Z,102067.72
2023-02-06T19:18:54.718Z,102064.50
2023-02-06T19:20:56.075Z,102059.59
2023-02-06T19:22:57.557Z,102057.19
2023-02-06T19:24:58.916Z,102058.13
2023-02-06T19:27:01.911Z,102066.97
2023-02-06T19:29:04.142Z,102065.38
2023-02-06T19:31:06.806Z,102066.56
2023-02-06T19:33:08.427Z,102060.69
2023-02-06T19:35:11.802Z,102065.81
2023-02-06T19:37:13.646Z,102084.25
2023-02-06T19:39:15.036Z,102094.94
2023-02-06T19:41:23.815Z,102095.78
2023-02-06T19:43:25.211Z,102097.13
2023-02-06T19:45:26.720Z,102095.19
2023-02-06T19:47:28.109Z,102099.75
2023-02-06T19:49:29.911Z,102091.50
2023-02-06T19:51:34.624Z,102093.59
2023-02-06T19:53:36.521Z,102091.19
2023-02-06T19:55:37.965Z,102094.75
2023-02-06T19:57:39.754Z,102101.84
2023-02-06T19:59:41.995Z,102091.75
2023-02-06T20:01:48.182Z,102089.72
2023-02-06T20:03:50.125Z,102100.13
2023-02-06T20:05:51.545Z,102101.88
2023-02-06T20:07:53.931Z,102101.69
2023-02-06T20:09:55.801Z,102101.97
2023-02-06T20:11:57.550Z,102103.75
2023-02-06T20:13:59.103Z,102100.50
2023-02-06T20:16:03.554Z,102097.47
2023-02-06T20:18:05.401Z,102102.88
2023-02-06T20:20:07.865Z,102107.47
2023-02-06T20:22:09.482Z,102100.50
2023-02-06T20:24:13.587Z,102107.66
2023-02-06T20:26:16.790Z,102112.25
2023-02-06T20:28:18.950Z,102112.34
2023-02-06T20:30:22.010Z,102111.13
2023-02-06T20:32:24.234Z,102105.78
2023-02-06T20:34:26.992Z,102109.22
2023-02-06T20:36:28.975Z,102102.75
2023-02-06T20:38:31.088Z,102105.34
2023-02-06T20:40:32.494Z,102098.69
2023-02-06T20:42:34.630Z,102101.28
2023-02-06T20:44:36.104Z,102099.19
2023-02-06T20:46:38.327Z,102096.69
2023-02-06T20:48:39.720Z,102099.66
2023-02-06T20:50:41.147Z,102105.91
2023-02-06T20:52:42.895Z,102094.66
2023-02-06T20:54:44.375Z,102106.03
2023-02-06T20:56:46.023Z,102101.84
2023-02-06T20:58:50.110Z,102103.72
2023-02-06T21:00:52.577Z,102106.13
2023-02-06T21:02:54.022Z,102099.56
2023-02-06T21:04:55.502Z,102098.78
2023-02-06T21:06:56.924Z,102087.53
2023-02-06T21:09:00.746Z,102104.19
2023-02-06T21:11:02.529Z,102101.69
2023-02-06T21:13:03.909Z,102106.16
2023-02-06T21:15:05.737Z,102106.38
2023-02-06T21:17:08.358Z,102103.75
2023-02-06T21:19:12.104Z,102103.97
2023-02-06T21:21:15.329Z,102105.81
2023-02-06T21:23:17.400Z,102102.47
2023-02-06T21:25:18.974Z,102097.47
2023-02-06T21:27:20.379Z,102103.59
2023-02-06T21:29:23.044Z,102094.31
2023-02-06T21:31:35.956Z,102104.00
2023-02-06T21:33:38.921Z,102097.19
2023-02-06T21:35:40.379Z,102096.28
2023-02-06T21:37:41.731Z,102092.13
2023-02-06T21:39:43.327Z,102097.47
2023-02-06T21:41:45.692Z,102090.84
2023-02-06T21:43:47.453Z,102098.72
2023-02-06T21:45:48.895Z,102096.38
2023-02-06T21:47:50.316Z,102101.78
2023-02-06T21:49:51.720Z,102103.66
2023-02-06T21:51:53.352Z,102100.41
2023-02-06T21:53:56.325Z,102099.66
2023-02-06T21:55:59.044Z,102108.50
2023-02-06T21:58:01.190Z,102107.84
2023-02-06T22:00:02.873Z,102105.31
2023-02-06T22:02:04.852Z,102101.34
2023-02-06T22:04:07.833Z,102104.97
2023-02-06T22:06:11.502Z,102095.69
2023-02-06T22:08:12.936Z,102092.44
2023-02-06T22:10:14.572Z,102095.97
2023-02-06T22:12:15.997Z,102093.63
2023-02-06T22:14:18.405Z,102093.81
2023-02-06T22:16:22.008Z,102094.88
2023-02-06T22:18:23.465Z,102098.38
2023-02-06T22:20:25.108Z,102086.13
2023-02-06T22:22:26.489Z,102091.81
2023-02-06T22:24:27.940Z,102086.31
2023-02-06T22:26:30.271Z,102080.91
2023-02-06T22:28:32.113Z,102083.34
2023-02-06T22:30:33.569Z,102084.91
2023-02-06T22:32:39.616Z,102084.00
2023-02-06T22:34:41.011Z,102087.25
2023-02-06T22:36:44.433Z,102079.91
2023-02-06T22:38:46.901Z,102080.44
2023-02-06T22:40:58.238Z,102080.25
2023-02-06T22:42:59.767Z,102064.47
2023-02-06T22:45:01.311Z,102055.91
2023-02-06T22:47:02.704Z,102058.63
2023-02-06T22:49:06.342Z,102057.78
2023-02-06T22:51:09.764Z,102057.22
2023-02-06T22:53:30.068Z,102062.63
2023-02-06T22:55:51.444Z,102058.44
2023-02-06T22:57:52.898Z,102054.56
2023-02-06T22:59:54.262Z,102056.72
2023-02-06T23:01:57.957Z,102057.06
2023-02-06T23:04:00.896Z,102066.75
2023-02-06T23:06:03.854Z,102052.34
2023-02-06T23:08:05.207Z,102054.13
2023-02-06T23:10:06.802Z,102066.63
2023-02-06T23:12:11.233Z,102077.84
2023-02-06T23:14:14.308Z,102075.44
2023-02-06T23:16:15.821Z,102065.13
2023-02-06T23:18:17.374Z,102059.41
2023-02-06T23:22:44.739Z,102070.00
2023-02-06T23:24:46.212Z,102070.19
2023-02-06T23:26:49.900Z,102071.28
2023-02-06T23:28:51.691Z,102067.72
2023-02-06T23:30:54.405Z,102073.13
2023-02-06T23:32:55.818Z,102075.97
2023-02-06T23:34:57.292Z,102063.94
2023-02-06T23:36:58.640Z,102081.28
2023-02-06T23:39:04.203Z,102091.19
2023-02-06T23:41:15.367Z,102093.97
2023-02-06T23:43:16.744Z,102098.41
2023-02-06T23:45:18.198Z,102108.78
2023-02-06T23:47:19.579Z,102111.50
2023-02-06T23:49:20.976Z,102119.19
2023-02-06T23:51:23.704Z,102121.59
2023-02-06T23:53:25.306Z,102116.69
2023-02-06T23:55:28.344Z,102115.66
2023-02-06T23:57:29.778Z,102124.56
2023-02-06T23:59:31.190Z,102123.13
